sensor_id;sensor_type;location;lat;lon;timestamp;temperature;humidity
19437;DHT22;9854;50.968;4.168;2023-04-03T00:01:09;4.60;99.90
19437;DHT22;9854;50.968;4.168;2023-04-03T00:03:35;4.70;99.90
19437;DHT22;9854;50.968;4.168;2023-04-03T00:06:01;4.60;99.90
19437;DHT22;9854;50.968;4.168;2023-04-03T00:08:27;4.60;99.90
19437;DHT22;9854;50.968;4.168;2023-04-03T00:10:52;4.60;99.90
19437;DHT22;9854;50.968;4.168;2023-04-03T00:13:18;4.70;99.90
19437;DHT22;9854;50.968;4.168;2023-04-03T00:15:44;4.70;99.90
19437;DHT22;9854;50.968;4.168;2023-04-03T00:18:10;4.70;99.90
19437;DHT22;9854;50.968;4.168;2023-04-03T00:20:35;4.60;99.90
19437;DHT22;9854;50.968;4.168;2023-04-03T00:23:02;4.60;99.90
19437;DHT22;9854;50.968;4.168;2023-04-03T00:25:27;4.50;99.90
19437;DHT22;9854;50.968;4.168;2023-04-03T00:27:53;4.50;99.90
19437;DHT22;9854;50.968;4.168;2023-04-03T00:30:21;4.50;99.90
19437;DHT22;9854;50.968;4.168;2023-04-03T00:32:48;4.50;99.90
19437;DHT22;9854;50.968;4.168;2023-04-03T00:35:14;4.50;99.90
19437;DHT22;9854;50.968;4.168;2023-04-03T00:37:42;4.40;99.90
19437;DHT22;9854;50.968;4.168;2023-04-03T00:40:08;4.40;99.90
19437;DHT22;9854;50.968;4.168;2023-04-03T00:42:37;4.40;99.90
19437;DHT22;9854;50.968;4.168;2023-04-03T00:47:29;4.30;99.90
19437;DHT22;9854;50.968;4.168;2023-04-03T00:49:56;4.30;99.90
19437;DHT22;9854;50.968;4.168;2023-04-03T00:52:25;4.30;99.90
19437;DHT22;9854;50.968;4.168;2023-04-03T00:54:56;4.30;99.90
19437;DHT22;9854;50.968;4.168;2023-04-03T00:57:23;4.20;99.90
19437;DHT22;9854;50.968;4.168;2023-04-03T00:59:52;4.20;99.90
19437;DHT22;9854;50.968;4.168;2023-04-03T01:02:20;4.20;99.90
19437;DHT22;9854;50.968;4.168;2023-04-03T01:04:46;4.20;99.90
19437;DHT22;9854;50.968;4.168;2023-04-03T01:07:16;4.20;99.90
19437;DHT22;9854;50.968;4.168;2023-04-03T01:09:43;4.20;99.90
19437;DHT22;9854;50.968;4.168;2023-04-03T01:12:28;4.20;99.90
19437;DHT22;9854;50.968;4.168;2023-04-03T01:14:59;4.20;99.90
19437;DHT22;9854;50.968;4.168;2023-04-03T01:23:12;4.20;99.90
19437;DHT22;9854;50.968;4.168;2023-04-03T01:25:47;4.30;99.90
19437;DHT22;9854;50.968;4.168;2023-04-03T01:28:18;4.20;99.90
19437;DHT22;9854;50.968;4.168;2023-04-03T01:30:53;4.20;99.90
19437;DHT22;9854;50.968;4.168;2023-04-03T01:33:21;4.20;99.90
19437;DHT22;9854;50.968;4.168;2023-04-03T01:35:47;4.20;99.90
19437;DHT22;9854;50.968;4.168;2023-04-03T01:38:13;4.20;99.90
19437;DHT22;9854;50.968;4.168;2023-04-03T01:40:38;4.10;99.90
19437;DHT22;9854;50.968;4.168;2023-04-03T01:43:04;4.10;99.90
19437;DHT22;9854;50.968;4.168;2023-04-03T01:45:30;4.10;99.90
19437;DHT22;9854;50.968;4.168;2023-04-03T01:47:56;4.20;99.90
19437;DHT22;9854;50.968;4.168;2023-04-03T01:50:22;4.20;99.90
19437;DHT22;9854;50.968;4.168;2023-04-03T01:52:47;4.30;99.90
19437;DHT22;9854;50.968;4.168;2023-04-03T01:55:13;4.30;99.90
19437;DHT22;9854;50.968;4.168;2023-04-03T01:57:39;4.20;99.90
19437;DHT22;9854;50.968;4.168;2023-04-03T02:00:05;4.20;99.90
19437;DHT22;9854;50.968;4.168;2023-04-03T02:02:31;4.10;99.90
19437;DHT22;9854;50.968;4.168;2023-04-03T02:04:56;4.10;99.90
19437;DHT22;9854;50.968;4.168;2023-04-03T02:07:22;4.00;99.90
19437;DHT22;9854;50.968;4.168;2023-04-03T02:09:47;4.00;99.90
19437;DHT22;9854;50.968;4.168;2023-04-03T02:12:13;3.90;99.90
19437;DHT22;9854;50.968;4.168;2023-04-03T02:14:39;3.90;99.90
19437;DHT22;9854;50.968;4.168;2023-04-03T02:17:04;3.90;99.90
19437;DHT22;9854;50.968;4.168;2023-04-03T02:19:36;3.80;99.90
19437;DHT22;9854;50.968;4.168;2023-04-03T02:22:03;3.90;99.90
19437;DHT22;9854;50.968;4.168;2023-04-03T02:24:29;3.90;99.90
19437;DHT22;9854;50.968;4.168;2023-04-03T02:26:54;3.90;99.90
19437;DHT22;9854;50.968;4.168;2023-04-03T02:29:20;3.90;99.90
19437;DHT22;9854;50.968;4.168;2023-04-03T02:31:46;3.90;99.90
19437;DHT22;9854;50.968;4.168;2023-04-03T02:34:12;4.00;99.90
19437;DHT22;9854;50.968;4.168;2023-04-03T02:36:37;3.90;99.90
19437;DHT22;9854;50.968;4.168;2023-04-03T02:39:03;3.80;99.90
19437;DHT22;9854;50.968;4.168;2023-04-03T02:41:29;3.80;99.90
19437;DHT22;9854;50.968;4.168;2023-04-03T02:44:04;3.70;99.90
19437;DHT22;9854;50.968;4.168;2023-04-03T02:46:30;3.70;99.90
19437;DHT22;9854;50.968;4.168;2023-04-03T02:48:56;3.80;99.90
19437;DHT22;9854;50.968;4.168;2023-04-03T02:51:22;3.80;99.90
19437;DHT22;9854;50.968;4.168;2023-04-03T02:53:49;3.80;99.90
19437;DHT22;9854;50.968;4.168;2023-04-03T02:56:15;3.70;99.90
19437;DHT22;9854;50.968;4.168;2023-04-03T02:58:40;3.70;99.90
19437;DHT22;9854;50.968;4.168;2023-04-03T03:01:06;3.70;99.90
19437;DHT22;9854;50.968;4.168;2023-04-03T03:03:32;3.70;99.90
19437;DHT22;9854;50.968;4.168;2023-04-03T03:06:05;3.70;99.90
19437;DHT22;9854;50.968;4.168;2023-04-03T03:08:32;3.70;99.90
19437;DHT22;9854;50.968;4.168;2023-04-03T03:10:58;3.70;99.90
19437;DHT22;9854;50.968;4.168;2023-04-03T03:13:24;3.70;99.90
19437;DHT22;9854;50.968;4.168;2023-04-03T03:15:50;3.60;99.90
19437;DHT22;9854;50.968;4.168;2023-04-03T03:18:15;3.60;99.90
19437;DHT22;9854;50.968;4.168;2023-04-03T03:20:41;3.50;99.90
19437;DHT22;9854;50.968;4.168;2023-04-03T03:23:06;3.50;99.90
19437;DHT22;9854;50.968;4.168;2023-04-03T03:25:32;3.50;99.90
19437;DHT22;9854;50.968;4.168;2023-04-03T03:27:58;3.50;99.90
19437;DHT22;9854;50.968;4.168;2023-04-03T03:30:23;3.50;99.90
19437;DHT22;9854;50.968;4.168;2023-04-03T03:32:49;3.60;99.90
19437;DHT22;9854;50.968;4.168;2023-04-03T03:35:15;3.60;99.90
19437;DHT22;9854;50.968;4.168;2023-04-03T03:37:41;3.50;99.90
19437;DHT22;9854;50.968;4.168;2023-04-03T03:40:07;3.60;99.90
19437;DHT22;9854;50.968;4.168;2023-04-03T03:42:33;3.60;99.90
19437;DHT22;9854;50.968;4.168;2023-04-03T03:44:58;3.60;99.90
19437;DHT22;9854;50.968;4.168;2023-04-03T03:47:24;3.50;99.90
19437;DHT22;9854;50.968;4.168;2023-04-03T03:49:50;3.50;99.90
19437;DHT22;9854;50.968;4.168;2023-04-03T03:52:16;3.50;99.90
19437;DHT22;9854;50.968;4.168;2023-04-03T03:54:42;3.40;99.90
19437;DHT22;9854;50.968;4.168;2023-04-03T03:57:07;3.40;99.90
19437;DHT22;9854;50.968;4.168;2023-04-03T03:59:33;3.40;99.90
19437;DHT22;9854;50.968;4.168;2023-04-03T04:01:59;3.40;99.90
19437;DHT22;9854;50.968;4.168;2023-04-03T04:04:24;3.40;99.90
19437;DHT22;9854;50.968;4.168;2023-04-03T04:06:50;3.50;99.90
19437;DHT22;9854;50.968;4.168;2023-04-03T04:09:17;3.50;99.90
19437;DHT22;9854;50.968;4.168;2023-04-03T04:11:43;3.50;99.90
19437;DHT22;9854;50.968;4.168;2023-04-03T04:14:08;3.50;99.90
19437;DHT22;9854;50.968;4.168;2023-04-03T04:16:35;3.80;99.90
19437;DHT22;9854;50.968;4.168;2023-04-03T04:19:01;4.00;99.90
19437;DHT22;9854;50.968;4.168;2023-04-03T04:21:27;4.20;99.90
19437;DHT22;9854;50.968;4.168;2023-04-03T04:23:52;4.10;99.90
19437;DHT22;9854;50.968;4.168;2023-04-03T04:26:18;3.90;99.90
19437;DHT22;9854;50.968;4.168;2023-04-03T04:28:43;3.80;99.90
19437;DHT22;9854;50.968;4.168;2023-04-03T04:31:09;3.90;99.90
19437;DHT22;9854;50.968;4.168;2023-04-03T04:33:35;3.80;99.90
19437;DHT22;9854;50.968;4.168;2023-04-03T04:36:01;3.70;99.90
19437;DHT22;9854;50.968;4.168;2023-04-03T04:38:26;3.60;99.90
19437;DHT22;9854;50.968;4.168;2023-04-03T04:40:52;3.70;99.90
19437;DHT22;9854;50.968;4.168;2023-04-03T04:43:17;3.70;99.90
19437;DHT22;9854;50.968;4.168;2023-04-03T04:45:43;3.80;99.90
19437;DHT22;9854;50.968;4.168;2023-04-03T04:48:10;3.60;99.90
19437;DHT22;9854;50.968;4.168;2023-04-03T04:50:35;3.40;99.90
19437;DHT22;9854;50.968;4.168;2023-04-03T04:53:01;3.40;99.90
19437;DHT22;9854;50.968;4.168;2023-04-03T04:55:27;3.50;99.90
19437;DHT22;9854;50.968;4.168;2023-04-03T04:57:52;3.60;99.90
19437;DHT22;9854;50.968;4.168;2023-04-03T05:00:18;3.60;99.90
19437;DHT22;9854;50.968;4.168;2023-04-03T05:02:44;3.80;99.90
19437;DHT22;9854;50.968;4.168;2023-04-03T05:05:10;3.70;99.90
19437;DHT22;9854;50.968;4.168;2023-04-03T05:07:35;3.60;99.90
19437;DHT22;9854;50.968;4.168;2023-04-03T05:10:02;3.30;99.90
19437;DHT22;9854;50.968;4.168;2023-04-03T05:12:28;3.20;99.90
19437;DHT22;9854;50.968;4.168;2023-04-03T05:14:54;3.10;99.90
19437;DHT22;9854;50.968;4.168;2023-04-03T05:17:20;3.10;99.90
19437;DHT22;9854;50.968;4.168;2023-04-03T05:19:46;3.10;99.90
19437;DHT22;9854;50.968;4.168;2023-04-03T05:22:11;3.10;99.90
19437;DHT22;9854;50.968;4.168;2023-04-03T05:24:37;3.00;99.90
19437;DHT22;9854;50.968;4.168;2023-04-03T05:27:03;3.40;99.90
19437;DHT22;9854;50.968;4.168;2023-04-03T05:29:29;3.40;99.90
19437;DHT22;9854;50.968;4.168;2023-04-03T05:31:55;3.40;99.90
19437;DHT22;9854;50.968;4.168;2023-04-03T05:34:20;3.30;99.90
19437;DHT22;9854;50.968;4.168;2023-04-03T05:36:46;3.20;99.90
19437;DHT22;9854;50.968;4.168;2023-04-03T05:39:12;3.20;99.90
19437;DHT22;9854;50.968;4.168;2023-04-03T05:41:37;3.10;99.90
19437;DHT22;9854;50.968;4.168;2023-04-03T05:44:03;3.00;99.90
19437;DHT22;9854;50.968;4.168;2023-04-03T05:46:29;3.10;99.90
19437;DHT22;9854;50.968;4.168;2023-04-03T05:48:55;3.20;99.90
19437;DHT22;9854;50.968;4.168;2023-04-03T05:51:29;3.30;99.90
19437;DHT22;9854;50.968;4.168;2023-04-03T05:54:03;3.30;99.90
19437;DHT22;9854;50.968;4.168;2023-04-03T05:56:31;3.30;99.90
19437;DHT22;9854;50.968;4.168;2023-04-03T05:58:57;3.30;99.90
19437;DHT22;9854;50.968;4.168;2023-04-03T06:01:22;3.30;99.90
19437;DHT22;9854;50.968;4.168;2023-04-03T06:03:48;3.30;99.90
19437;DHT22;9854;50.968;4.168;2023-04-03T06:06:14;3.40;99.90
19437;DHT22;9854;50.968;4.168;2023-04-03T06:08:40;3.40;99.90
19437;DHT22;9854;50.968;4.168;2023-04-03T06:11:06;3.50;99.90
19437;DHT22;9854;50.968;4.168;2023-04-03T06:13:34;3.50;99.90
19437;DHT22;9854;50.968;4.168;2023-04-03T06:16:00;3.50;99.90
19437;DHT22;9854;50.968;4.168;2023-04-03T06:18:26;3.50;99.90
19437;DHT22;9854;50.968;4.168;2023-04-03T06:20:52;3.60;99.90
19437;DHT22;9854;50.968;4.168;2023-04-03T06:23:17;3.60;99.90
19437;DHT22;9854;50.968;4.168;2023-04-03T06:25:43;3.70;99.90
19437;DHT22;9854;50.968;4.168;2023-04-03T06:28:09;3.80;99.90
19437;DHT22;9854;50.968;4.168;2023-04-03T06:30:36;3.90;99.90
19437;DHT22;9854;50.968;4.168;2023-04-03T06:33:02;3.90;99.90
19437;DHT22;9854;50.968;4.168;2023-04-03T06:35:28;4.00;99.90
19437;DHT22;9854;50.968;4.168;2023-04-03T06:37:55;4.10;99.90
19437;DHT22;9854;50.968;4.168;2023-04-03T06:40:23;4.10;99.90
19437;DHT22;9854;50.968;4.168;2023-04-03T06:42:50;4.20;99.90
19437;DHT22;9854;50.968;4.168;2023-04-03T06:45:16;4.40;99.90
19437;DHT22;9854;50.968;4.168;2023-04-03T06:47:42;4.50;99.90
19437;DHT22;9854;50.968;4.168;2023-04-03T06:50:09;4.50;99.90
19437;DHT22;9854;50.968;4.168;2023-04-03T06:52:36;4.60;99.90
19437;DHT22;9854;50.968;4.168;2023-04-03T06:55:03;4.70;99.90
19437;DHT22;9854;50.968;4.168;2023-04-03T06:57:29;4.80;99.90
19437;DHT22;9854;50.968;4.168;2023-04-03T06:59:55;4.90;99.90
19437;DHT22;9854;50.968;4.168;2023-04-03T07:02:21;5.00;99.90
19437;DHT22;9854;50.968;4.168;2023-04-03T07:04:47;5.00;99.90
19437;DHT22;9854;50.968;4.168;2023-04-03T07:07:12;5.10;99.90
19437;DHT22;9854;50.968;4.168;2023-04-03T07:09:38;5.20;99.90
19437;DHT22;9854;50.968;4.168;2023-04-03T07:12:04;5.30;99.90
19437;DHT22;9854;50.968;4.168;2023-04-03T07:14:30;5.40;99.90
19437;DHT22;9854;50.968;4.168;2023-04-03T07:16:56;5.50;99.90
19437;DHT22;9854;50.968;4.168;2023-04-03T07:19:21;5.60;99.90
19437;DHT22;9854;50.968;4.168;2023-04-03T07:21:49;5.70;99.90
19437;DHT22;9854;50.968;4.168;2023-04-03T07:24:15;5.70;99.90
19437;DHT22;9854;50.968;4.168;2023-04-03T07:26:41;5.80;99.90
19437;DHT22;9854;50.968;4.168;2023-04-03T07:29:07;5.80;99.90
19437;DHT22;9854;50.968;4.168;2023-04-03T07:31:32;5.90;99.90
19437;DHT22;9854;50.968;4.168;2023-04-03T07:33:59;6.00;99.90
19437;DHT22;9854;50.968;4.168;2023-04-03T07:36:25;6.10;99.90
19437;DHT22;9854;50.968;4.168;2023-04-03T07:38:50;6.10;99.90
19437;DHT22;9854;50.968;4.168;2023-04-03T07:41:18;6.30;99.90
19437;DHT22;9854;50.968;4.168;2023-04-03T07:43:45;6.30;99.90
19437;DHT22;9854;50.968;4.168;2023-04-03T07:46:12;6.50;99.90
19437;DHT22;9854;50.968;4.168;2023-04-03T07:48:38;6.50;99.90
19437;DHT22;9854;50.968;4.168;2023-04-03T07:51:05;6.60;99.90
19437;DHT22;9854;50.968;4.168;2023-04-03T07:53:31;6.60;99.90
19437;DHT22;9854;50.968;4.168;2023-04-03T07:55:57;6.60;99.90
19437;DHT22;9854;50.968;4.168;2023-04-03T07:58:23;6.60;99.90
19437;DHT22;9854;50.968;4.168;2023-04-03T08:00:49;6.70;99.90
19437;DHT22;9854;50.968;4.168;2023-04-03T08:03:16;6.70;99.90
19437;DHT22;9854;50.968;4.168;2023-04-03T08:05:45;6.70;99.90
19437;DHT22;9854;50.968;4.168;2023-04-03T08:08:12;6.80;99.90
19437;DHT22;9854;50.968;4.168;2023-04-03T08:10:39;6.80;99.90
19437;DHT22;9854;50.968;4.168;2023-04-03T08:13:05;6.90;99.90
19437;DHT22;9854;50.968;4.168;2023-04-03T08:15:31;6.90;99.90
19437;DHT22;9854;50.968;4.168;2023-04-03T08:17:58;7.00;99.90
19437;DHT22;9854;50.968;4.168;2023-04-03T08:20:23;7.10;99.90
19437;DHT22;9854;50.968;4.168;2023-04-03T08:22:50;7.10;99.90
19437;DHT22;9854;50.968;4.168;2023-04-03T08:25:16;7.10;99.90
19437;DHT22;9854;50.968;4.168;2023-04-03T08:27:42;7.50;99.90
19437;DHT22;9854;50.968;4.168;2023-04-03T08:30:08;7.40;99.90
19437;DHT22;9854;50.968;4.168;2023-04-03T08:32:34;7.40;99.90
19437;DHT22;9854;50.968;4.168;2023-04-03T08:35:02;7.50;99.90
19437;DHT22;9854;50.968;4.168;2023-04-03T08:37:30;7.50;99.90
19437;DHT22;9854;50.968;4.168;2023-04-03T08:39:56;7.50;99.90
19437;DHT22;9854;50.968;4.168;2023-04-03T08:45:12;7.60;99.90
19437;DHT22;9854;50.968;4.168;2023-04-03T08:47:52;7.60;99.90
19437;DHT22;9854;50.968;4.168;2023-04-03T08:50:43;7.70;99.90
19437;DHT22;9854;50.968;4.168;2023-04-03T08:53:21;7.90;99.90
19437;DHT22;9854;50.968;4.168;2023-04-03T08:55:50;8.00;99.90
19437;DHT22;9854;50.968;4.168;2023-04-03T08:58:22;8.00;99.90
19437;DHT22;9854;50.968;4.168;2023-04-03T09:00:50;8.10;99.90
19437;DHT22;9854;50.968;4.168;2023-04-03T09:03:18;8.20;99.90
19437;DHT22;9854;50.968;4.168;2023-04-03T09:06:00;8.40;99.90
19437;DHT22;9854;50.968;4.168;2023-04-03T09:16:20;8.50;99.90
19437;DHT22;9854;50.968;4.168;2023-04-03T09:19:06;8.50;99.90
19437;DHT22;9854;50.968;4.168;2023-04-03T09:21:39;8.50;99.90
19437;DHT22;9854;50.968;4.168;2023-04-03T09:24:10;8.60;99.90
19437;DHT22;9854;50.968;4.168;2023-04-03T09:26:58;8.70;99.90
19437;DHT22;9854;50.968;4.168;2023-04-03T09:29:26;8.80;99.90
19437;DHT22;9854;50.968;4.168;2023-04-03T09:32:02;8.90;99.90
19437;DHT22;9854;50.968;4.168;2023-04-03T09:34:41;9.10;99.90
19437;DHT22;9854;50.968;4.168;2023-04-03T09:37:07;9.20;99.90
19437;DHT22;9854;50.968;4.168;2023-04-03T09:39:50;9.20;99.90
19437;DHT22;9854;50.968;4.168;2023-04-03T09:42:24;9.30;99.90
19437;DHT22;9854;50.968;4.168;2023-04-03T09:45:01;9.40;99.90
19437;DHT22;9854;50.968;4.168;2023-04-03T09:47:31;9.40;99.90
19437;DHT22;9854;50.968;4.168;2023-04-03T09:52:45;9.50;99.90
19437;DHT22;9854;50.968;4.168;2023-04-03T09:57:45;9.60;99.90
19437;DHT22;9854;50.968;4.168;2023-04-03T10:00:26;9.70;99.90
19437;DHT22;9854;50.968;4.168;2023-04-03T10:02:54;9.90;99.90
19437;DHT22;9854;50.968;4.168;2023-04-03T10:07:52;10.20;99.90
19437;DHT22;9854;50.968;4.168;2023-04-03T10:10:22;10.30;99.90
19437;DHT22;9854;50.968;4.168;2023-04-03T10:13:01;10.50;99.90
19437;DHT22;9854;50.968;4.168;2023-04-03T10:15:29;10.60;99.90
19437;DHT22;9854;50.968;4.168;2023-04-03T10:18:02;10.80;99.90
19437;DHT22;9854;50.968;4.168;2023-04-03T10:23:31;10.70;99.90
19437;DHT22;9854;50.968;4.168;2023-04-03T10:34:46;11.30;99.90
19437;DHT22;9854;50.968;4.168;2023-04-03T10:38:08;11.10;99.90
19437;DHT22;9854;50.968;4.168;2023-04-03T10:40:29;11.00;99.90
19437;DHT22;9854;50.968;4.168;2023-04-03T10:45:46;11.30;99.90
19437;DHT22;9854;50.968;4.168;2023-04-03T10:51:25;11.20;99.90
19437;DHT22;9854;50.968;4.168;2023-04-03T10:57:05;11.70;99.90
19437;DHT22;9854;50.968;4.168;2023-04-03T10:59:32;11.70;99.90
19437;DHT22;9854;50.968;4.168;2023-04-03T11:02:06;11.90;99.90
19437;DHT22;9854;50.968;4.168;2023-04-03T11:04:36;12.00;99.90
19437;DHT22;9854;50.968;4.168;2023-04-03T11:07:15;12.10;99.90
19437;DHT22;9854;50.968;4.168;2023-04-03T11:09:44;12.30;99.90
19437;DHT22;9854;50.968;4.168;2023-04-03T11:12:40;12.40;99.90
19437;DHT22;9854;50.968;4.168;2023-04-03T11:15:15;12.50;99.90
19437;DHT22;9854;50.968;4.168;2023-04-03T11:18:06;12.60;99.90
19437;DHT22;9854;50.968;4.168;2023-04-03T11:20:35;12.70;99.90
19437;DHT22;9854;50.968;4.168;2023-04-03T11:23:04;12.80;99.90
19437;DHT22;9854;50.968;4.168;2023-04-03T11:25:33;12.80;99.90
19437;DHT22;9854;50.968;4.168;2023-04-03T11:28:05;12.70;99.90
19437;DHT22;9854;50.968;4.168;2023-04-03T11:30:48;12.50;99.90
19437;DHT22;9854;50.968;4.168;2023-04-03T11:33:24;12.50;99.90
19437;DHT22;9854;50.968;4.168;2023-04-03T11:35:56;12.70;99.90
19437;DHT22;9854;50.968;4.168;2023-04-03T11:38:40;13.00;99.90
19437;DHT22;9854;50.968;4.168;2023-04-03T11:41:08;13.10;99.90
19437;DHT22;9854;50.968;4.168;2023-04-03T11:43:59;13.10;99.90
19437;DHT22;9854;50.968;4.168;2023-04-03T11:46:57;13.20;99.90
19437;DHT22;9854;50.968;4.168;2023-04-03T12:08:43;13.80;99.90
19437;DHT22;9854;50.968;4.168;2023-04-03T12:29:28;14.60;99.90
19437;DHT22;9854;50.968;4.168;2023-04-03T12:32:21;14.50;99.90
19437;DHT22;9854;50.968;4.168;2023-04-03T12:35:30;14.60;99.90
19437;DHT22;9854;50.968;4.168;2023-04-03T12:46:08;14.70;99.90
19437;DHT22;9854;50.968;4.168;2023-04-03T12:48:57;14.40;99.90
19437;DHT22;9854;50.968;4.168;2023-04-03T12:51:39;14.30;99.90
19437;DHT22;9854;50.968;4.168;2023-04-03T12:54:32;14.50;99.90
19437;DHT22;9854;50.968;4.168;2023-04-03T12:57:20;14.70;99.90
19437;DHT22;9854;50.968;4.168;2023-04-03T12:59:46;15.00;99.90
19437;DHT22;9854;50.968;4.168;2023-04-03T13:02:32;15.10;99.90
19437;DHT22;9854;50.968;4.168;2023-04-03T13:05:06;15.30;99.90
19437;DHT22;9854;50.968;4.168;2023-04-03T13:07:34;15.60;99.90
19437;DHT22;9854;50.968;4.168;2023-04-03T13:12:44;16.20;99.90
19437;DHT22;9854;50.968;4.168;2023-04-03T13:15:28;16.30;99.90
19437;DHT22;9854;50.968;4.168;2023-04-03T13:17:55;16.40;99.90
19437;DHT22;9854;50.968;4.168;2023-04-03T13:25:16;16.70;99.90
19437;DHT22;9854;50.968;4.168;2023-04-03T13:27:43;16.90;99.90
19437;DHT22;9854;50.968;4.168;2023-04-03T13:30:26;16.70;99.90
19437;DHT22;9854;50.968;4.168;2023-04-03T13:32:53;17.00;99.90
19437;DHT22;9854;50.968;4.168;2023-04-03T13:35:36;16.90;99.90
19437;DHT22;9854;50.968;4.168;2023-04-03T13:43:21;16.40;99.90
19437;DHT22;9854;50.968;4.168;2023-04-03T13:48:43;16.60;99.90
19437;DHT22;9854;50.968;4.168;2023-04-03T13:53:52;17.20;99.90
19437;DHT22;9854;50.968;4.168;2023-04-03T13:56:20;16.80;99.90
19437;DHT22;9854;50.968;4.168;2023-04-03T13:59:04;16.80;99.90
19437;DHT22;9854;50.968;4.168;2023-04-03T14:01:40;17.10;99.90
19437;DHT22;9854;50.968;4.168;2023-04-03T14:04:18;17.30;99.90
19437;DHT22;9854;50.968;4.168;2023-04-03T14:06:45;17.60;99.90
19437;DHT22;9854;50.968;4.168;2023-04-03T14:09:11;17.70;99.90
19437;DHT22;9854;50.968;4.168;2023-04-03T14:11:37;18.00;99.90
19437;DHT22;9854;50.968;4.168;2023-04-03T14:14:11;18.00;99.90
19437;DHT22;9854;50.968;4.168;2023-04-03T14:16:41;18.40;99.90
19437;DHT22;9854;50.968;4.168;2023-04-03T14:19:21;18.50;99.90
19437;DHT22;9854;50.968;4.168;2023-04-03T14:21:47;18.20;99.90
19437;DHT22;9854;50.968;4.168;2023-04-03T14:24:16;18.10;99.90
19437;DHT22;9854;50.968;4.168;2023-04-03T14:26:43;18.30;99.90
19437;DHT22;9854;50.968;4.168;2023-04-03T14:29:11;18.40;99.90
19437;DHT22;9854;50.968;4.168;2023-04-03T14:31:37;18.70;99.90
19437;DHT22;9854;50.968;4.168;2023-04-03T14:34:03;18.70;99.90
19437;DHT22;9854;50.968;4.168;2023-04-03T14:36:29;18.80;99.90
19437;DHT22;9854;50.968;4.168;2023-04-03T14:38:56;18.60;99.90
19437;DHT22;9854;50.968;4.168;2023-04-03T14:41:24;18.90;99.90
19437;DHT22;9854;50.968;4.168;2023-04-03T14:43:51;19.20;99.90
19437;DHT22;9854;50.968;4.168;2023-04-03T14:46:22;19.20;99.90
19437;DHT22;9854;50.968;4.168;2023-04-03T14:48:49;19.30;99.90
19437;DHT22;9854;50.968;4.168;2023-04-03T14:51:15;19.50;99.90
19437;DHT22;9854;50.968;4.168;2023-04-03T14:53:42;19.70;99.90
19437;DHT22;9854;50.968;4.168;2023-04-03T14:58:44;19.30;99.90
19437;DHT22;9854;50.968;4.168;2023-04-03T15:01:11;19.20;99.90
19437;DHT22;9854;50.968;4.168;2023-04-03T15:03:37;19.30;99.90
19437;DHT22;9854;50.968;4.168;2023-04-03T15:06:03;18.50;99.90
19437;DHT22;9854;50.968;4.168;2023-04-03T15:08:29;18.70;99.90
19437;DHT22;9854;50.968;4.168;2023-04-03T15:10:55;18.90;99.90
19437;DHT22;9854;50.968;4.168;2023-04-03T15:13:22;19.20;99.90
19437;DHT22;9854;50.968;4.168;2023-04-03T15:15:49;19.60;99.90
19437;DHT22;9854;50.968;4.168;2023-04-03T15:18:27;19.90;99.90
19437;DHT22;9854;50.968;4.168;2023-04-03T15:20:53;19.90;99.90
19437;DHT22;9854;50.968;4.168;2023-04-03T15:23:20;19.80;99.90
19437;DHT22;9854;50.968;4.168;2023-04-03T15:25:52;20.20;99.90
19437;DHT22;9854;50.968;4.168;2023-04-03T15:30:53;21.20;99.90
19437;DHT22;9854;50.968;4.168;2023-04-03T15:33:19;20.60;99.90
19437;DHT22;9854;50.968;4.168;2023-04-03T15:35:44;21.00;99.90
19437;DHT22;9854;50.968;4.168;2023-04-03T15:38:10;20.70;99.90
19437;DHT22;9854;50.968;4.168;2023-04-03T15:40:36;20.90;99.90
19437;DHT22;9854;50.968;4.168;2023-04-03T15:43:02;20.90;99.90
19437;DHT22;9854;50.968;4.168;2023-04-03T15:45:29;21.90;99.90
19437;DHT22;9854;50.968;4.168;2023-04-03T15:47:56;23.00;99.90
19437;DHT22;9854;50.968;4.168;2023-04-03T15:50:22;23.70;98.20
19437;DHT22;9854;50.968;4.168;2023-04-03T15:52:52;24.20;97.50
19437;DHT22;9854;50.968;4.168;2023-04-03T15:55:26;24.30;95.00
19437;DHT22;9854;50.968;4.168;2023-04-03T15:57:53;24.60;94.00
19437;DHT22;9854;50.968;4.168;2023-04-03T16:00:19;25.20;92.60
19437;DHT22;9854;50.968;4.168;2023-04-03T16:02:46;25.60;90.30
19437;DHT22;9854;50.968;4.168;2023-04-03T16:05:13;25.90;90.80
19437;DHT22;9854;50.968;4.168;2023-04-03T16:07:41;26.30;87.60
19437;DHT22;9854;50.968;4.168;2023-04-03T16:10:08;26.60;85.70
19437;DHT22;9854;50.968;4.168;2023-04-03T16:12:34;26.30;84.80
19437;DHT22;9854;50.968;4.168;2023-04-03T16:15:00;26.40;81.90
19437;DHT22;9854;50.968;4.168;2023-04-03T16:17:27;26.70;81.00
19437;DHT22;9854;50.968;4.168;2023-04-03T16:19:54;26.70;79.80
19437;DHT22;9854;50.968;4.168;2023-04-03T16:22:21;27.00;78.80
19437;DHT22;9854;50.968;4.168;2023-04-03T16:24:48;26.80;78.80
19437;DHT22;9854;50.968;4.168;2023-04-03T16:27:15;26.70;76.10
19437;DHT22;9854;50.968;4.168;2023-04-03T16:29:41;26.60;74.70
19437;DHT22;9854;50.968;4.168;2023-04-03T16:32:07;26.30;76.80
19437;DHT22;9854;50.968;4.168;2023-04-03T16:34:33;26.60;76.70
19437;DHT22;9854;50.968;4.168;2023-04-03T16:36:59;26.90;76.20
19437;DHT22;9854;50.968;4.168;2023-04-03T16:39:25;26.70;74.90
19437;DHT22;9854;50.968;4.168;2023-04-03T16:41:50;26.90;75.50
19437;DHT22;9854;50.968;4.168;2023-04-03T16:44:16;26.70;72.60
19437;DHT22;9854;50.968;4.168;2023-04-03T16:46:42;25.70;73.00
19437;DHT22;9854;50.968;4.168;2023-04-03T16:49:08;24.10;76.70
19437;DHT22;9854;50.968;4.168;2023-04-03T16:51:33;25.00;75.90
19437;DHT22;9854;50.968;4.168;2023-04-03T16:54:00;24.70;75.70
19437;DHT22;9854;50.968;4.168;2023-04-03T16:56:25;25.10;75.10
19437;DHT22;9854;50.968;4.168;2023-04-03T16:58:54;25.20;75.90
19437;DHT22;9854;50.968;4.168;2023-04-03T17:01:21;25.60;75.10
19437;DHT22;9854;50.968;4.168;2023-04-03T17:03:47;25.60;73.70
19437;DHT22;9854;50.968;4.168;2023-04-03T17:06:17;25.90;74.40
19437;DHT22;9854;50.968;4.168;2023-04-03T17:08:47;25.50;74.00
19437;DHT22;9854;50.968;4.168;2023-04-03T17:11:14;25.70;75.50
19437;DHT22;9854;50.968;4.168;2023-04-03T17:13:40;24.90;73.90
19437;DHT22;9854;50.968;4.168;2023-04-03T17:16:09;23.50;75.00
19437;DHT22;9854;50.968;4.168;2023-04-03T17:18:35;23.00;77.40
19437;DHT22;9854;50.968;4.168;2023-04-03T17:21:01;22.70;78.80
19437;DHT22;9854;50.968;4.168;2023-04-03T17:23:28;23.00;77.70
19437;DHT22;9854;50.968;4.168;2023-04-03T17:25:54;22.60;78.60
19437;DHT22;9854;50.968;4.168;2023-04-03T17:28:21;23.00;78.10
19437;DHT22;9854;50.968;4.168;2023-04-03T17:30:52;23.20;78.60
19437;DHT22;9854;50.968;4.168;2023-04-03T17:33:18;23.50;79.20
19437;DHT22;9854;50.968;4.168;2023-04-03T17:35:43;23.70;77.60
19437;DHT22;9854;50.968;4.168;2023-04-03T17:38:09;23.40;77.20
19437;DHT22;9854;50.968;4.168;2023-04-03T17:40:35;23.30;77.00
19437;DHT22;9854;50.968;4.168;2023-04-03T17:43:00;23.30;78.50
19437;DHT22;9854;50.968;4.168;2023-04-03T17:45:26;23.10;78.80
19437;DHT22;9854;50.968;4.168;2023-04-03T17:47:52;23.00;78.60
19437;DHT22;9854;50.968;4.168;2023-04-03T17:50:19;22.90;79.00
19437;DHT22;9854;50.968;4.168;2023-04-03T17:52:45;22.60;79.00
19437;DHT22;9854;50.968;4.168;2023-04-03T17:55:11;22.40;79.00
19437;DHT22;9854;50.968;4.168;2023-04-03T17:57:37;21.90;80.30
19437;DHT22;9854;50.968;4.168;2023-04-03T18:00:04;21.70;81.60